sensor_id;sensor_type;location;lat;lon;timestamp;pressure;altitude;pressure_sealevel;temperature;humidity
16694;BME280;39538;52.196;9.892;2022-11-04T00:01:19;99051.59;;;11.47;84.22
16694;BME280;39538;52.196;9.892;2022-11-04T00:03:46;99053.31;;;11.48;84.13
16694;BME280;39538;52.196;9.892;2022-11-04T00:06:12;99041.91;;;11.55;83.75
16694;BME280;39538;52.196;9.892;2022-11-04T00:08:40;99047.41;;;11.54;83.92
16694;BME280;39538;52.196;9.892;2022-11-04T00:11:08;99050.56;;;11.57;83.61
16694;BME280;39538;52.196;9.892;2022-11-04T00:13:53;99043.16;;;11.61;83.43
16694;BME280;39538;52.196;9.892;2022-11-04T00:16:20;99053.59;;;11.63;83.21
16694;BME280;39538;52.196;9.892;2022-11-04T00:19:06;99059.00;;;11.53;83.91
16694;BME280;39538;52.196;9.892;2022-11-04T00:21:33;99062.41;;;11.45;84.49
16694;BME280;39538;52.196;9.892;2022-11-04T00:24:18;99060.25;;;11.31;85.64
16694;BME280;39538;52.196;9.892;2022-11-04T00:27:02;99054.41;;;11.27;86.80
16694;BME280;39538;52.196;9.892;2022-11-04T00:29:47;99053.63;;;11.17;87.16
16694;BME280;39538;52.196;9.892;2022-11-04T00:32:13;99059.38;;;11.12;87.55
16694;BME280;39538;52.196;9.892;2022-11-04T00:34:57;99057.25;;;11.16;88.21
16694;BME280;39538;52.196;9.892;2022-11-04T00:37:24;99057.63;;;11.21;88.23
16694;BME280;39538;52.196;9.892;2022-11-04T00:39:52;99064.78;;;11.21;87.73
16694;BME280;39538;52.196;9.892;2022-11-04T00:42:18;99063.88;;;11.30;87.75
16694;BME280;39538;52.196;9.892;2022-11-04T00:44:45;99061.47;;;11.36;87.36
16694;BME280;39538;52.196;9.892;2022-11-04T00:47:12;99057.69;;;11.39;87.89
16694;BME280;39538;52.196;9.892;2022-11-04T00:49:38;99058.22;;;11.43;86.73
16694;BME280;39538;52.196;9.892;2022-11-04T00:52:05;99060.88;;;11.43;86.07
16694;BME280;39538;52.196;9.892;2022-11-04T00:54:31;99055.56;;;11.43;86.14
16694;BME280;39538;52.196;9.892;2022-11-04T00:56:59;99057.03;;;11.55;85.28
16694;BME280;39538;52.196;9.892;2022-11-04T00:59:26;99056.88;;;11.56;85.49
16694;BME280;39538;52.196;9.892;2022-11-04T01:01:52;99058.63;;;11.66;85.36
16694;BME280;39538;52.196;9.892;2022-11-04T01:04:20;99060.16;;;11.68;85.47
16694;BME280;39538;52.196;9.892;2022-11-04T01:06:47;99059.75;;;11.63;85.59
16694;BME280;39538;52.196;9.892;2022-11-04T01:09:13;99060.38;;;11.57;86.39
16694;BME280;39538;52.196;9.892;2022-11-04T01:11:40;99064.41;;;11.61;86.12
16694;BME280;39538;52.196;9.892;2022-11-04T01:14:08;99059.22;;;11.59;86.65
16694;BME280;39538;52.196;9.892;2022-11-04T01:16:34;99062.47;;;11.53;88.23
16694;BME280;39538;52.196;9.892;2022-11-04T01:19:01;99062.25;;;11.47;89.39
16694;BME280;39538;52.196;9.892;2022-11-04T01:21:28;99071.41;;;11.34;91.68
16694;BME280;39538;52.196;9.892;2022-11-04T01:23:55;99071.91;;;11.20;94.39
16694;BME280;39538;52.196;9.892;2022-11-04T01:26:23;99080.22;;;11.07;97.13
16694;BME280;39538;52.196;9.892;2022-11-04T01:28:51;99096.34;;;10.96;100.00
16694;BME280;39538;52.196;9.892;2022-11-04T01:31:22;99096.09;;;10.89;100.00
16694;BME280;39538;52.196;9.892;2022-11-04T01:33:49;99112.44;;;10.85;100.00
16694;BME280;39538;52.196;9.892;2022-11-04T01:36:17;99109.66;;;10.76;100.00
16694;BME280;39538;52.196;9.892;2022-11-04T01:38:44;99123.38;;;10.72;100.00
16694;BME280;39538;52.196;9.892;2022-11-04T01:41:17;99121.00;;;10.69;100.00
16694;BME280;39538;52.196;9.892;2022-11-04T01:43:48;99126.59;;;10.66;100.00
16694;BME280;39538;52.196;9.892;2022-11-04T01:46:24;99130.66;;;10.60;100.00
16694;BME280;39538;52.196;9.892;2022-11-04T01:48:51;99134.44;;;10.58;100.00
16694;BME280;39538;52.196;9.892;2022-11-04T01:51:19;99131.06;;;10.55;100.00
16694;BME280;39538;52.196;9.892;2022-11-04T01:53:46;99140.84;;;10.55;100.00
16694;BME280;39538;52.196;9.892;2022-11-04T01:56:15;99138.78;;;10.49;100.00
16694;BME280;39538;52.196;9.892;2022-11-04T01:58:46;99137.22;;;10.46;100.00
16694;BME280;39538;52.196;9.892;2022-11-04T02:01:14;99134.88;;;10.43;100.00
16694;BME280;39538;52.196;9.892;2022-11-04T02:03:47;99124.81;;;10.37;100.00
16694;BME280;39538;52.196;9.892;2022-11-04T02:06:15;99118.84;;;10.35;100.00
16694;BME280;39538;52.196;9.892;2022-11-04T02:08:44;99124.41;;;10.32;100.00
16694;BME280;39538;52.196;9.892;2022-11-04T02:11:11;99126.50;;;10.28;100.00
16694;BME280;39538;52.196;9.892;2022-11-04T02:13:59;99122.03;;;10.29;100.00
16694;BME280;39538;52.196;9.892;2022-11-04T02:16:31;99121.06;;;10.30;100.00
16694;BME280;39538;52.196;9.892;2022-11-04T02:19:15;99115.19;;;10.26;100.00
16694;BME280;39538;52.196;9.892;2022-11-04T02:27:53;99113.66;;;10.24;100.00
16694;BME280;39538;52.196;9.892;2022-11-04T02:30:30;99111.00;;;10.24;100.00
16694;BME280;39538;52.196;9.892;2022-11-04T02:33:19;99110.00;;;10.25;100.00
16694;BME280;39538;52.196;9.892;2022-11-04T02:35:55;99109.88;;;10.26;100.00
16694;BME280;39538;52.196;9.892;2022-11-04T02:38:31;99108.03;;;10.27;100.00
16694;BME280;39538;52.196;9.892;2022-11-04T02:41:06;99110.44;;;10.30;100.00
16694;BME280;39538;52.196;9.892;2022-11-04T02:43:44;99102.66;;;10.28;100.00
16694;BME280;39538;52.196;9.892;2022-11-04T02:46:19;99089.22;;;10.30;100.00
16694;BME280;39538;52.196;9.892;2022-11-04T02:48:53;99100.00;;;10.28;100.00
16694;BME280;39538;52.196;9.892;2022-11-04T02:51:24;99090.47;;;10.26;100.00
16694;BME280;39538;52.196;9.892;2022-11-04T02:53:58;99100.00;;;10.28;100.00
16694;BME280;39538;52.196;9.892;2022-11-04T02:56:27;99100.81;;;10.29;100.00
16694;BME280;39538;52.196;9.892;2022-11-04T02:58:58;99101.66;;;10.29;100.00
16694;BME280;39538;52.196;9.892;2022-11-04T03:01:30;99110.00;;;10.25;100.00
16694;BME280;39538;52.196;9.892;2022-11-04T03:04:00;99109.03;;;10.26;100.00
16694;BME280;39538;52.196;9.892;2022-11-04T03:06:29;99119.66;;;10.26;100.00
16694;BME280;39538;52.196;9.892;2022-11-04T03:08:58;99118.66;;;10.27;100.00
16694;BME280;39538;52.196;9.892;2022-11-04T03:11:27;99124.25;;;10.24;100.00
16694;BME280;39538;52.196;9.892;2022-11-04T03:13:57;99132.47;;;10.21;100.00
16694;BME280;39538;52.196;9.892;2022-11-04T03:16:28;99143.06;;;10.21;100.00
16694;BME280;39538;52.196;9.892;2022-11-04T03:19:02;99158.31;;;10.19;100.00
16694;BME280;39538;52.196;9.892;2022-11-04T03:21:32;99165.56;;;10.17;100.00
16694;BME280;39538;52.196;9.892;2022-11-04T03:24:01;99175.59;;;10.13;100.00
16694;BME280;39538;52.196;9.892;2022-11-04T03:26:32;99194.28;;;10.11;100.00
16694;BME280;39538;52.196;9.892;2022-11-04T03:29:11;99201.28;;;10.12;100.00
16694;BME280;39538;52.196;9.892;2022-11-04T03:31:45;99205.47;;;10.15;100.00
16694;BME280;39538;52.196;9.892;2022-11-04T03:34:15;99203.81;;;10.14;100.00
16694;BME280;39538;52.196;9.892;2022-11-04T03:36:41;99205.47;;;10.15;100.00
16694;BME280;39538;52.196;9.892;2022-11-04T03:39:08;99219.56;;;10.16;100.00
16694;BME280;39538;52.196;9.892;2022-11-04T03:41:39;99225.28;;;10.11;100.00
16694;BME280;39538;52.196;9.892;2022-11-04T03:44:07;99225.28;;;10.11;100.00
16694;BME280;39538;52.196;9.892;2022-11-04T03:46:33;99230.88;;;10.08;100.00
16694;BME280;39538;52.196;9.892;2022-11-04T03:49:02;99233.09;;;10.03;100.00
16694;BME280;39538;52.196;9.892;2022-11-04T03:51:29;99225.56;;;9.98;100.00
16694;BME280;39538;52.196;9.892;2022-11-04T03:53:57;99236.56;;;9.94;100.00
16694;BME280;39538;52.196;9.892;2022-11-04T03:56:39;99235.03;;;9.91;100.00
16694;BME280;39538;52.196;9.892;2022-11-04T03:59:22;99232.38;;;9.91;99.15
16694;BME280;39538;52.196;9.892;2022-11-04T04:01:55;99243.09;;;9.89;99.05
16694;BME280;39538;52.196;9.892;2022-11-04T04:04:28;99238.06;;;9.86;99.16
16694;BME280;39538;52.196;9.892;2022-11-04T04:07:00;99251.47;;;9.85;99.17
16694;BME280;39538;52.196;9.892;2022-11-04T04:09:34;99254.38;;;9.82;99.30
16694;BME280;39538;52.196;9.892;2022-11-04T04:12:06;99249.22;;;9.80;99.37
16694;BME280;39538;52.196;9.892;2022-11-04T04:14:38;99259.69;;;9.82;98.38
16694;BME280;39538;52.196;9.892;2022-11-04T04:17:10;99263.56;;;9.78;98.45
16694;BME280;39538;52.196;9.892;2022-11-04T04:19:41;99256.59;;;9.77;98.94
16694;BME280;39538;52.196;9.892;2022-11-04T04:22:13;99262.16;;;9.74;99.13
16694;BME280;39538;52.196;9.892;2022-11-04T04:24:43;99273.97;;;9.69;99.73
16694;BME280;39538;52.196;9.892;2022-11-04T04:27:30;99274.84;;;9.70;99.47
16694;BME280;39538;52.196;9.892;2022-11-04T04:30:03;99274.69;;;9.71;99.41
16694;BME280;39538;52.196;9.892;2022-11-04T04:32:34;99278.06;;;9.74;99.84
16694;BME280;39538;52.196;9.892;2022-11-04T04:35:07;99280.69;;;9.74;100.00
16694;BME280;39538;52.196;9.892;2022-11-04T04:37:52;99288.50;;;9.65;99.60
16694;BME280;39538;52.196;9.892;2022-11-04T04:40:41;99284.84;;;9.66;99.98
16694;BME280;39538;52.196;9.892;2022-11-04T04:43:35;99282.47;;;9.63;100.00
16694;BME280;39538;52.196;9.892;2022-11-04T04:46:20;99290.44;;;9.63;100.00
16694;BME280;39538;52.196;9.892;2022-11-04T04:48:47;99291.13;;;9.65;99.38
16694;BME280;39538;52.196;9.892;2022-11-04T04:51:15;99293.50;;;9.68;96.24
16694;BME280;39538;52.196;9.892;2022-11-04T04:53:41;99296.59;;;9.74;96.43
16694;BME280;39538;52.196;9.892;2022-11-04T04:56:08;99291.31;;;9.74;96.43
16694;BME280;39538;52.196;9.892;2022-11-04T04:58:35;99295.66;;;9.75;96.01
16694;BME280;39538;52.196;9.892;2022-11-04T05:01:02;99301.91;;;9.74;95.66
16694;BME280;39538;52.196;9.892;2022-11-04T05:03:29;99306.09;;;9.76;95.76
16694;BME280;39538;52.196;9.892;2022-11-04T05:05:58;99296.34;;;9.77;94.78
16694;BME280;39538;52.196;9.892;2022-11-04T05:08:26;99301.66;;;9.77;94.52
16694;BME280;39538;52.196;9.892;2022-11-04T05:10:52;99301.91;;;9.74;94.83
16694;BME280;39538;52.196;9.892;2022-11-04T05:13:19;99299.66;;;9.69;94.51
16694;BME280;39538;52.196;9.892;2022-11-04T05:15:53;99305.03;;;9.58;94.87
16694;BME280;39538;52.196;9.892;2022-11-04T05:18:20;99316.28;;;9.50;95.49
16694;BME280;39538;52.196;9.892;2022-11-04T05:20:46;99314.88;;;9.46;95.63
16694;BME280;39538;52.196;9.892;2022-11-04T05:23:13;99323.78;;;9.45;96.12
16694;BME280;39538;52.196;9.892;2022-11-04T05:25:41;99321.25;;;9.43;96.51
16694;BME280;39538;52.196;9.892;2022-11-04T05:28:08;99334.66;;;9.42;96.60
16694;BME280;39538;52.196;9.892;2022-11-04T05:30:35;99345.09;;;9.43;96.23
16694;BME280;39538;52.196;9.892;2022-11-04T05:33:02;99345.31;;;9.52;96.11
16694;BME280;39538;52.196;9.892;2022-11-04T05:35:28;99343.22;;;9.55;95.81
16694;BME280;39538;52.196;9.892;2022-11-04T05:37:55;99332.38;;;9.58;94.75
16694;BME280;39538;52.196;9.892;2022-11-04T05:40:22;99324.03;;;9.63;94.56
16694;BME280;39538;52.196;9.892;2022-11-04T05:42:50;99338.97;;;9.64;94.24
16694;BME280;39538;52.196;9.892;2022-11-04T05:45:17;99350.38;;;9.64;93.24
16694;BME280;39538;52.196;9.892;2022-11-04T05:47:44;99359.66;;;9.70;92.94
16694;BME280;39538;52.196;9.892;2022-11-04T05:50:10;99368.88;;;9.76;92.72
16694;BME280;39538;52.196;9.892;2022-11-04T05:52:37;99373.34;;;9.75;92.47
16694;BME280;39538;52.196;9.892;2022-11-04T05:55:04;99378.38;;;9.78;92.53
16694;BME280;39538;52.196;9.892;2022-11-04T05:57:31;99378.25;;;9.80;92.76
16694;BME280;39538;52.196;9.892;2022-11-04T06:00:01;99375.00;;;9.76;92.05
16694;BME280;39538;52.196;9.892;2022-11-04T06:02:28;99381.84;;;9.79;91.70
16694;BME280;39538;52.196;9.892;2022-11-04T06:04:54;99389.50;;;9.72;91.32
16694;BME280;39538;52.196;9.892;2022-11-04T06:07:21;99394.66;;;9.74;91.10
16694;BME280;39538;52.196;9.892;2022-11-04T06:09:47;99411.88;;;9.79;91.28
16694;BME280;39538;52.196;9.892;2022-11-04T06:12:15;99408.50;;;9.77;91.02
16694;BME280;39538;52.196;9.892;2022-11-04T06:14:42;99412.97;;;9.77;90.36
16694;BME280;39538;52.196;9.892;2022-11-04T06:17:13;99405.97;;;9.76;90.21
16694;BME280;39538;52.196;9.892;2022-11-04T06:19:39;99405.03;;;9.77;90.28
16694;BME280;39538;52.196;9.892;2022-11-04T06:22:07;99416.56;;;9.76;90.14
16694;BME280;39538;52.196;9.892;2022-11-04T06:24:34;99420.78;;;9.78;90.28
16694;BME280;39538;52.196;9.892;2022-11-04T06:27:01;99429.56;;;9.79;89.88
16694;BME280;39538;52.196;9.892;2022-11-04T06:29:28;99431.38;;;9.78;90.05
16694;BME280;39538;52.196;9.892;2022-11-04T06:31:54;99436.81;;;9.77;88.76
16694;BME280;39538;52.196;9.892;2022-11-04T06:34:22;99436.69;;;9.78;88.13
16694;BME280;39538;52.196;9.892;2022-11-04T06:36:49;99448.97;;;9.79;88.73
16694;BME280;39538;52.196;9.892;2022-11-04T06:39:16;99456.44;;;9.74;87.84
16694;BME280;39538;52.196;9.892;2022-11-04T06:41:42;99467.91;;;9.75;87.51
16694;BME280;39538;52.196;9.892;2022-11-04T06:44:09;99452.25;;;9.71;87.35
16694;BME280;39538;52.196;9.892;2022-11-04T06:46:37;99431.66;;;9.75;87.34
16694;BME280;39538;52.196;9.892;2022-11-04T06:49:05;99436.34;;;9.71;87.71
16694;BME280;39538;52.196;9.892;2022-11-04T06:51:33;99456.84;;;9.69;87.37
16694;BME280;39538;52.196;9.892;2022-11-04T06:54:00;99457.81;;;9.68;87.24
16694;BME280;39538;52.196;9.892;2022-11-04T06:56:27;99462.28;;;9.68;87.70
16694;BME280;39538;52.196;9.892;2022-11-04T06:58:54;99464.78;;;9.69;87.58
16694;BME280;39538;52.196;9.892;2022-11-04T07:01:23;99462.53;;;9.65;87.29
16694;BME280;39538;52.196;9.892;2022-11-04T07:03:50;99463.13;;;9.68;87.22
16694;BME280;39538;52.196;9.892;2022-11-04T07:06:18;99457.56;;;9.71;87.07
16694;BME280;39538;52.196;9.892;2022-11-04T07:08:47;99466.22;;;9.74;87.61
16694;BME280;39538;52.196;9.892;2022-11-04T07:11:14;99472.13;;;9.77;86.96
16694;BME280;39538;52.196;9.892;2022-11-04T07:13:41;99471.84;;;9.80;86.83
16694;BME280;39538;52.196;9.892;2022-11-04T07:16:08;99469.66;;;9.85;87.25
16694;BME280;39538;52.196;9.892;2022-11-04T07:18:35;99467.59;;;9.89;86.21
16694;BME280;39538;52.196;9.892;2022-11-04T07:21:02;99465.13;;;9.97;85.77
16694;BME280;39538;52.196;9.892;2022-11-04T07:23:29;99458.72;;;10.00;85.84
16694;BME280;39538;52.196;9.892;2022-11-04T07:26:00;99462.78;;;10.04;85.45
16694;BME280;39538;52.196;9.892;2022-11-04T07:28:27;99457.81;;;10.10;85.34
16694;BME280;39538;52.196;9.892;2022-11-04T07:30:55;99468.28;;;10.12;85.03
16694;BME280;39538;52.196;9.892;2022-11-04T07:33:23;99478.75;;;10.13;84.58
16694;BME280;39538;52.196;9.892;2022-11-04T07:35:50;99480.16;;;10.18;84.86
16694;BME280;39538;52.196;9.892;2022-11-04T07:38:17;99486.31;;;10.18;84.88
16694;BME280;39538;52.196;9.892;2022-11-04T07:40:44;99494.03;;;10.21;84.85
16694;BME280;39538;52.196;9.892;2022-11-04T07:43:12;99493.72;;;10.15;84.37
16694;BME280;39538;52.196;9.892;2022-11-04T07:45:38;99498.03;;;10.16;84.56
16694;BME280;39538;52.196;9.892;2022-11-04T07:48:06;99505.03;;;10.17;85.00
16694;BME280;39538;52.196;9.892;2022-11-04T07:50:33;99495.56;;;10.24;84.87
16694;BME280;39538;52.196;9.892;2022-11-04T07:52:59;99494.47;;;10.26;85.16
16694;BME280;39538;52.196;9.892;2022-11-04T07:55:26;99502.69;;;10.23;84.57
16694;BME280;39538;52.196;9.892;2022-11-04T07:57:53;99497.41;;;10.23;84.40
16694;BME280;39538;52.196;9.892;2022-11-04T08:00:21;99500.97;;;10.33;84.96
16694;BME280;39538;52.196;9.892;2022-11-04T08:02:48;99495.13;;;10.40;84.67
16694;BME280;39538;52.196;9.892;2022-11-04T08:05:15;99502.78;;;10.33;84.09
16694;BME280;39538;52.196;9.892;2022-11-04T08:07:42;99500.44;;;10.40;83.84
16694;BME280;39538;52.196;9.892;2022-11-04T08:10:09;99502.22;;;10.39;83.90
16694;BME280;39538;52.196;9.892;2022-11-04T08:12:35;99503.78;;;10.42;83.19
16694;BME280;39538;52.196;9.892;2022-11-04T08:15:04;99509.09;;;10.42;83.14
16694;BME280;39538;52.196;9.892;2022-11-04T08:17:32;99517.19;;;10.40;83.38
16694;BME280;39538;52.196;9.892;2022-11-04T08:19:59;99517.63;;;10.45;83.06
16694;BME280;39538;52.196;9.892;2022-11-04T08:22:26;99508.56;;;10.48;82.72
16694;BME280;39538;52.196;9.892;2022-11-04T08:24:52;99510.91;;;10.41;82.19
16694;BME280;39538;52.196;9.892;2022-11-04T08:27:19;99511.63;;;10.43;82.41
16694;BME280;39538;52.196;9.892;2022-11-04T08:29:47;99520.00;;;10.48;82.55
16694;BME280;39538;52.196;9.892;2022-11-04T08:32:13;99515.97;;;10.44;82.28
16694;BME280;39538;52.196;9.892;2022-11-04T08:34:41;99513.88;;;10.48;82.45
16694;BME280;39538;52.196;9.892;2022-11-04T08:37:08;99505.25;;;10.55;81.74
16694;BME280;39538;52.196;9.892;2022-11-04T08:39:35;99513.34;;;10.54;81.90
16694;BME280;39538;52.196;9.892;2022-11-04T08:42:01;99515.34;;;10.62;81.33
16694;BME280;39538;52.196;9.892;2022-11-04T08:44:28;99518.75;;;10.73;81.12
16694;BME280;39538;52.196;9.892;2022-11-04T08:46:55;99516.38;;;10.80;79.68
16694;BME280;39538;52.196;9.892;2022-11-04T08:49:21;99522.16;;;10.95;79.93
16694;BME280;39538;52.196;9.892;2022-11-04T08:51:49;99531.47;;;11.20;79.43
16694;BME280;39538;52.196;9.892;2022-11-04T08:54:21;99552.22;;;11.65;78.29
16694;BME280;39538;52.196;9.892;2022-11-04T08:56:47;99557.56;;;11.85;76.81
16694;BME280;39538;52.196;9.892;2022-11-04T08:59:14;99560.38;;;12.02;74.92
16694;BME280;39538;52.196;9.892;2022-11-04T09:01:41;99558.28;;;12.06;74.11
16694;BME280;39538;52.196;9.892;2022-11-04T09:04:09;99558.41;;;12.14;73.86
16694;BME280;39538;52.196;9.892;2022-11-04T09:06:38;99566.53;;;12.22;73.64
16694;BME280;39538;52.196;9.892;2022-11-04T09:09:08;99557.28;;;12.27;73.53
16694;BME280;39538;52.196;9.892;2022-11-04T09:11:37;99560.34;;;12.32;73.01
16694;BME280;39538;52.196;9.892;2022-11-04T09:14:05;99570.16;;;12.31;72.90
16694;BME280;39538;52.196;9.892;2022-11-04T09:16:34;99563.88;;;12.13;72.61
16694;BME280;39538;52.196;9.892;2022-11-04T09:19:01;99561.34;;;12.11;72.83
16694;BME280;39538;52.196;9.892;2022-11-04T09:21:28;99569.31;;;12.31;72.88
16694;BME280;39538;52.196;9.892;2022-11-04T09:23:55;99566.94;;;12.18;73.06
16694;BME280;39538;52.196;9.892;2022-11-04T09:26:23;99560.50;;;12.11;73.44
16694;BME280;39538;52.196;9.892;2022-11-04T09:28:52;99550.44;;;12.24;72.94
16694;BME280;39538;52.196;9.892;2022-11-04T09:31:20;99546.91;;;12.23;72.86
16694;BME280;39538;52.196;9.892;2022-11-04T09:33:47;99550.69;;;12.31;72.98
16694;BME280;39538;52.196;9.892;2022-11-04T09:36:13;99551.66;;;12.30;72.81
16694;BME280;39538;52.196;9.892;2022-11-04T09:38:41;99553.50;;;12.29;73.80
16694;BME280;39538;52.196;9.892;2022-11-04T09:41:17;99550.97;;;12.28;73.70
16694;BME280;39538;52.196;9.892;2022-11-04T09:43:52;99546.34;;;12.30;73.76
16694;BME280;39538;52.196;9.892;2022-11-04T09:46:23;99541.16;;;12.18;73.94
16694;BME280;39538;52.196;9.892;2022-11-04T09:48:52;99531.22;;;12.20;74.62
16694;BME280;39538;52.196;9.892;2022-11-04T09:51:22;99527.41;;;12.33;74.30
16694;BME280;39538;52.196;9.892;2022-11-04T09:53:52;99521.66;;;12.47;73.32
16694;BME280;39538;52.196;9.892;2022-11-04T09:56:22;99508.31;;;12.57;72.57
16694;BME280;39538;52.196;9.892;2022-11-04T09:58:51;99519.81;;;12.85;71.71
16694;BME280;39538;52.196;9.892;2022-11-04T10:01:25;99516.75;;;13.35;71.25
16694;BME280;39538;52.196;9.892;2022-11-04T10:04:07;99520.75;;;13.67;68.85
16694;BME280;39538;52.196;9.892;2022-11-04T10:06:45;99523.84;;;13.98;67.18
16694;BME280;39538;52.196;9.892;2022-11-04T10:09:32;99524.03;;;14.49;66.57
16694;BME280;39538;52.196;9.892;2022-11-04T10:12:13;99548.47;;;15.31;63.96
16694;BME280;39538;52.196;9.892;2022-11-04T10:14:59;99545.41;;;16.42;60.37
16694;BME280;39538;52.196;9.892;2022-11-04T10:17:38;99540.47;;;16.95;55.73
16694;BME280;39538;52.196;9.892;2022-11-04T10:20:21;99543.19;;;17.18;54.16
16694;BME280;39538;52.196;9.892;2022-11-04T10:22:57;99563.34;;;17.76;52.88
16694;BME280;39538;52.196;9.892;2022-11-04T10:25:28;99569.47;;;17.93;52.44
16694;BME280;39538;52.196;9.892;2022-11-04T10:27:58;99585.94;;;18.51;51.38
16694;BME280;39538;52.196;9.892;2022-11-04T10:30:26;99590.72;;;19.23;48.93
16694;BME280;39538;52.196;9.892;2022-11-04T10:33:01;99607.69;;;19.24;48.87
16694;BME280;39538;52.196;9.892;2022-11-04T10:35:33;99605.34;;;18.38;49.41
16694;BME280;39538;52.196;9.892;2022-11-04T10:38:14;99608.06;;;17.53;52.25
16694;BME280;39538;52.196;9.892;2022-11-04T10:40:45;99618.75;;;16.57;54.00
16694;BME280;39538;52.196;9.892;2022-11-04T10:43:15;99613.78;;;15.63;56.80
16694;BME280;39538;52.196;9.892;2022-11-04T10:45:51;99608.03;;;15.49;57.71
16694;BME280;39538;52.196;9.892;2022-11-04T10:48:26;99615.22;;;15.06;58.95
16694;BME280;39538;52.196;9.892;2022-11-04T10:50:56;99617.34;;;14.94;59.67
16694;BME280;39538;52.196;9.892;2022-11-04T10:53:25;99609.84;;;14.72;60.22
16694;BME280;39538;52.196;9.892;2022-11-04T10:55:58;99607.97;;;14.64;59.83
16694;BME280;39538;52.196;9.892;2022-11-04T10:58:28;99603.78;;;15.30;59.63
16694;BME280;39538;52.196;9.892;2022-11-04T11:00:57;99605.13;;;16.92;54.92
16694;BME280;39538;52.196;9.892;2022-11-04T11:03:27;99601.13;;;18.59;50.18
16694;BME280;39538;52.196;9.892;2022-11-04T11:06:10;99599.19;;;19.93;46.57
16694;BME280;39538;52.196;9.892;2022-11-04T11:08:38;99590.81;;;20.74;44.40
16694;BME280;39538;52.196;9.892;2022-11-04T11:11:06;99594.66;;;20.93;43.13
16694;BME280;39538;52.196;9.892;2022-11-04T11:13:35;99590.44;;;21.18;42.63
16694;BME280;39538;52.196;9.892;2022-11-04T11:16:07;99589.16;;;21.49;41.96
16694;BME280;39538;52.196;9.892;2022-11-04T11:18:34;99601.44;;;21.58;41.95
16694;BME280;39538;52.196;9.892;2022-11-04T11:21:08;99598.78;;;21.23;41.64
16694;BME280;39538;52.196;9.892;2022-11-04T11:23:38;99597.78;;;20.61;42.05
16694;BME280;39538;52.196;9.892;2022-11-04T11:26:06;99601.00;;;19.49;43.76
16694;BME280;39538;52.196;9.892;2022-11-04T11:28:33;99607.97;;;18.99;44.68
16694;BME280;39538;52.196;9.892;2022-11-04T11:31:07;99604.53;;;18.15;46.25
16694;BME280;39538;52.196;9.892;2022-11-04T11:33:40;99598.66;;;17.25;48.09
16694;BME280;39538;52.196;9.892;2022-11-04T11:36:15;99603.31;;;16.84;50.50
16694;BME280;39538;52.196;9.892;2022-11-04T11:39:02;99614.22;;;16.41;52.28
16694;BME280;39538;52.196;9.892;2022-11-04T11:41:31;99608.00;;;16.82;51.66
16694;BME280;39538;52.196;9.892;2022-11-04T11:44:00;99608.16;;;16.80;52.13
16694;BME280;39538;52.196;9.892;2022-11-04T11:46:31;99603.47;;;16.66;51.98
16694;BME280;39538;52.196;9.892;2022-11-04T11:49:00;99596.34;;;17.14;51.53
16694;BME280;39538;52.196;9.892;2022-11-04T11:51:29;99597.72;;;17.81;49.55
16694;BME280;39538;52.196;9.892;2022-11-04T11:54:03;99592.69;;;18.62;47.27
16694;BME280;39538;52.196;9.892;2022-11-04T11:56:35;99596.47;;;19.05;46.24
16694;BME280;39538;52.196;9.892;2022-11-04T11:59:14;99598.34;;;19.05;46.00
16694;BME280;39538;52.196;9.892;2022-11-04T12:01:46;99592.66;;;19.29;45.66
16694;BME280;39538;52.196;9.892;2022-11-04T12:04:15;99590.44;;;19.18;46.23
16694;BME280;39538;52.196;9.892;2022-11-04T12:06:47;99589.34;;;19.64;45.96
16694;BME280;39538;52.196;9.892;2022-11-04T12:09:25;99590.44;;;19.18;45.47
16694;BME280;39538;52.196;9.892;2022-11-04T12:12:04;99591.28;;;19.19;46.00
16694;BME280;39538;52.196;9.892;2022-11-04T12:14:48;99598.41;;;18.97;47.49
16694;BME280;39538;52.196;9.892;2022-11-04T12:17:28;99599.38;;;18.66;47.58
16694;BME280;39538;52.196;9.892;2022-11-04T12:20:20;99604.00;;;18.57;47.37
16694;BME280;39538;52.196;9.892;2022-11-04T12:22:54;99609.00;;;17.99;48.60
16694;BME280;39538;52.196;9.892;2022-11-04T12:25:27;99602.81;;;17.67;49.05
16694;BME280;39538;52.196;9.892;2022-11-04T12:28:02;99603.50;;;17.30;50.28
16694;BME280;39538;52.196;9.892;2022-11-04T12:30:34;99605.13;;;16.92;51.15
16694;BME280;39538;52.196;9.892;2022-11-04T12:33:16;99593.81;;;16.49;52.56
16694;BME280;39538;52.196;9.892;2022-11-04T12:35:54;99597.31;;;16.16;53.26
16694;BME280;39538;52.196;9.892;2022-11-04T12:41:25;99608.22;;;15.48;55.96
16694;BME280;39538;52.196;9.892;2022-11-04T12:44:01;99615.31;;;15.23;56.55
16694;BME280;39538;52.196;9.892;2022-11-04T12:46:35;99613.25;;;15.16;57.14
16694;BME280;39538;52.196;9.892;2022-11-04T12:49:16;99625.06;;;15.06;57.79
16694;BME280;39538;52.196;9.892;2022-11-04T12:51:50;99624.09;;;14.81;58.10
16694;BME280;39538;52.196;9.892;2022-11-04T12:54:29;99633.28;;;14.78;58.87
16694;BME280;39538;52.196;9.892;2022-11-04T12:57:09;99634.03;;;14.70;59.60
16694;BME280;39538;52.196;9.892;2022-11-04T12:59:46;99639.00;;;14.91;59.52
16694;BME280;39538;52.196;9.892;2022-11-04T13:02:23;99644.97;;;15.11;58.66
16694;BME280;39538;52.196;9.892;2022-11-04T13:04:58;99645.75;;;15.30;57.84
16694;BME280;39538;52.196;9.892;2022-11-04T13:07:29;99643.94;;;15.38;57.33
16694;BME280;39538;52.196;9.892;2022-11-04T13:09:59;99645.38;;;15.67;57.03
16694;BME280;39538;52.196;9.892;2022-11-04T13:12:30;99651.56;;;15.68;56.87
16694;BME280;39538;52.196;9.892;2022-11-04T13:15:02;99652.63;;;15.75;57.24
16694;BME280;39538;52.196;9.892;2022-11-04T13:17:32;99662.53;;;15.99;56.55
16694;BME280;39538;52.196;9.892;2022-11-04T13:20:04;99653.22;;;16.11;55.49
16694;BME280;39538;52.196;9.892;2022-11-04T13:22:40;99652.00;;;15.97;55.62
16694;BME280;39538;52.196;9.892;2022-11-04T13:25:14;99653.00;;;15.88;56.28
16694;BME280;39538;52.196;9.892;2022-11-04T13:27:43;99657.59;;;15.70;56.11